sensor_id;sensor_type;location;lat;lon;timestamp;temperature;humidity
18141;DHT22;9196;49.194;12.526;2023-04-25T00:01:23;7.70;99.90
18141;DHT22;9196;49.194;12.526;2023-04-25T00:03:50;7.80;99.90
18141;DHT22;9196;49.194;12.526;2023-04-25T00:06:17;7.70;99.90
18141;DHT22;9196;49.194;12.526;2023-04-25T00:08:45;7.70;99.90
18141;DHT22;9196;49.194;12.526;2023-04-25T00:11:12;7.60;99.90
18141;DHT22;9196;49.194;12.526;2023-04-25T00:13:39;7.60;99.90
18141;DHT22;9196;49.194;12.526;2023-04-25T00:16:07;7.70;99.90
18141;DHT22;9196;49.194;12.526;2023-04-25T00:18:33;7.70;99.90
18141;DHT22;9196;49.194;12.526;2023-04-25T00:21:00;7.70;99.90
18141;DHT22;9196;49.194;12.526;2023-04-25T00:23:28;7.80;99.90
18141;DHT22;9196;49.194;12.526;2023-04-25T00:25:56;7.80;99.90
18141;DHT22;9196;49.194;12.526;2023-04-25T00:28:22;7.80;99.90
18141;DHT22;9196;49.194;12.526;2023-04-25T00:30:49;7.80;99.90
18141;DHT22;9196;49.194;12.526;2023-04-25T00:33:16;7.70;99.90
18141;DHT22;9196;49.194;12.526;2023-04-25T00:35:43;7.70;99.90
18141;DHT22;9196;49.194;12.526;2023-04-25T00:38:10;7.70;99.90
18141;DHT22;9196;49.194;12.526;2023-04-25T00:40:37;7.70;99.90
18141;DHT22;9196;49.194;12.526;2023-04-25T00:43:05;7.70;99.90
18141;DHT22;9196;49.194;12.526;2023-04-25T00:45:32;7.70;99.90
18141;DHT22;9196;49.194;12.526;2023-04-25T00:48:05;7.70;99.90
18141;DHT22;9196;49.194;12.526;2023-04-25T00:50:33;7.60;99.90
18141;DHT22;9196;49.194;12.526;2023-04-25T00:53:00;7.70;99.90
18141;DHT22;9196;49.194;12.526;2023-04-25T00:55:28;7.60;99.90
18141;DHT22;9196;49.194;12.526;2023-04-25T00:57:56;7.50;99.90
18141;DHT22;9196;49.194;12.526;2023-04-25T01:00:25;7.50;99.90
18141;DHT22;9196;49.194;12.526;2023-04-25T01:02:52;7.50;99.90
18141;DHT22;9196;49.194;12.526;2023-04-25T01:05:19;7.50;99.90
18141;DHT22;9196;49.194;12.526;2023-04-25T01:07:46;7.50;99.90
18141;DHT22;9196;49.194;12.526;2023-04-25T01:10:13;7.50;99.90
18141;DHT22;9196;49.194;12.526;2023-04-25T01:12:41;7.50;99.90
18141;DHT22;9196;49.194;12.526;2023-04-25T01:15:08;7.50;99.90
18141;DHT22;9196;49.194;12.526;2023-04-25T01:17:36;7.50;99.90
18141;DHT22;9196;49.194;12.526;2023-04-25T01:20:03;7.50;99.90
18141;DHT22;9196;49.194;12.526;2023-04-25T01:22:32;7.50;99.90
18141;DHT22;9196;49.194;12.526;2023-04-25T01:24:59;7.50;99.90
18141;DHT22;9196;49.194;12.526;2023-04-25T01:27:27;7.50;99.90
18141;DHT22;9196;49.194;12.526;2023-04-25T01:29:54;7.50;99.90
18141;DHT22;9196;49.194;12.526;2023-04-25T01:32:21;7.50;99.90
18141;DHT22;9196;49.194;12.526;2023-04-25T01:34:48;7.50;99.90
18141;DHT22;9196;49.194;12.526;2023-04-25T01:37:16;7.50;99.90
18141;DHT22;9196;49.194;12.526;2023-04-25T01:39:44;7.50;99.90
18141;DHT22;9196;49.194;12.526;2023-04-25T01:42:12;7.40;99.90
18141;DHT22;9196;49.194;12.526;2023-04-25T01:44:39;7.40;99.90
18141;DHT22;9196;49.194;12.526;2023-04-25T01:47:06;7.50;99.90
18141;DHT22;9196;49.194;12.526;2023-04-25T01:49:33;7.50;99.90
18141;DHT22;9196;49.194;12.526;2023-04-25T01:52:00;7.50;99.90
18141;DHT22;9196;49.194;12.526;2023-04-25T01:54:26;7.40;99.90
18141;DHT22;9196;49.194;12.526;2023-04-25T01:56:57;7.40;99.90
18141;DHT22;9196;49.194;12.526;2023-04-25T01:59:24;7.40;99.90
18141;DHT22;9196;49.194;12.526;2023-04-25T02:01:51;7.40;99.90
18141;DHT22;9196;49.194;12.526;2023-04-25T02:04:17;7.40;99.90
18141;DHT22;9196;49.194;12.526;2023-04-25T02:06:44;7.50;99.90
18141;DHT22;9196;49.194;12.526;2023-04-25T02:09:11;7.40;99.90
18141;DHT22;9196;49.194;12.526;2023-04-25T02:11:38;7.40;99.90
18141;DHT22;9196;49.194;12.526;2023-04-25T02:14:06;7.40;99.90
18141;DHT22;9196;49.194;12.526;2023-04-25T02:16:33;7.50;99.90
18141;DHT22;9196;49.194;12.526;2023-04-25T02:19:01;7.40;99.90
18141;DHT22;9196;49.194;12.526;2023-04-25T02:21:28;7.40;99.90
18141;DHT22;9196;49.194;12.526;2023-04-25T02:23:55;7.30;99.90
18141;DHT22;9196;49.194;12.526;2023-04-25T02:26:22;7.30;99.90
18141;DHT22;9196;49.194;12.526;2023-04-25T02:28:49;7.30;99.90
18141;DHT22;9196;49.194;12.526;2023-04-25T02:31:18;7.30;99.90
18141;DHT22;9196;49.194;12.526;2023-04-25T02:33:45;7.40;99.90
18141;DHT22;9196;49.194;12.526;2023-04-25T02:36:12;7.50;99.90
18141;DHT22;9196;49.194;12.526;2023-04-25T02:38:39;7.50;99.90
18141;DHT22;9196;49.194;12.526;2023-04-25T02:41:06;7.50;99.90
18141;DHT22;9196;49.194;12.526;2023-04-25T02:43:32;7.70;99.90
18141;DHT22;9196;49.194;12.526;2023-04-25T02:45:59;7.70;99.90
18141;DHT22;9196;49.194;12.526;2023-04-25T02:48:27;7.70;99.90
18141;DHT22;9196;49.194;12.526;2023-04-25T02:50:54;7.70;99.90
18141;DHT22;9196;49.194;12.526;2023-04-25T02:53:21;7.80;99.90
18141;DHT22;9196;49.194;12.526;2023-04-25T02:55:48;8.00;99.90
18141;DHT22;9196;49.194;12.526;2023-04-25T02:58:15;8.00;99.90
18141;DHT22;9196;49.194;12.526;2023-04-25T03:00:42;8.00;99.90
18141;DHT22;9196;49.194;12.526;2023-04-25T03:03:09;8.00;99.90
18141;DHT22;9196;49.194;12.526;2023-04-25T03:05:37;8.00;99.90
18141;DHT22;9196;49.194;12.526;2023-04-25T03:08:04;8.00;99.90
18141;DHT22;9196;49.194;12.526;2023-04-25T03:10:31;8.10;99.90
18141;DHT22;9196;49.194;12.526;2023-04-25T03:12:58;8.10;99.90
18141;DHT22;9196;49.194;12.526;2023-04-25T03:15:24;8.10;99.90
18141;DHT22;9196;49.194;12.526;2023-04-25T03:17:52;8.10;99.90
18141;DHT22;9196;49.194;12.526;2023-04-25T03:20:18;8.10;99.90
18141;DHT22;9196;49.194;12.526;2023-04-25T03:22:47;8.00;99.90
18141;DHT22;9196;49.194;12.526;2023-04-25T03:25:13;8.10;99.90
18141;DHT22;9196;49.194;12.526;2023-04-25T03:27:40;7.90;99.90
18141;DHT22;9196;49.194;12.526;2023-04-25T03:30:08;7.90;99.90
18141;DHT22;9196;49.194;12.526;2023-04-25T03:32:34;7.90;99.90
18141;DHT22;9196;49.194;12.526;2023-04-25T03:35:01;7.90;99.90
18141;DHT22;9196;49.194;12.526;2023-04-25T03:37:28;7.90;99.90
18141;DHT22;9196;49.194;12.526;2023-04-25T03:39:56;7.90;99.90
18141;DHT22;9196;49.194;12.526;2023-04-25T03:42:23;7.90;99.90
18141;DHT22;9196;49.194;12.526;2023-04-25T03:44:51;8.00;99.90
18141;DHT22;9196;49.194;12.526;2023-04-25T03:47:18;8.00;99.90
18141;DHT22;9196;49.194;12.526;2023-04-25T03:49:45;8.10;99.90
18141;DHT22;9196;49.194;12.526;2023-04-25T03:52:12;8.00;99.90
18141;DHT22;9196;49.194;12.526;2023-04-25T03:54:39;8.00;99.90
18141;DHT22;9196;49.194;12.526;2023-04-25T03:57:07;7.90;99.90
18141;DHT22;9196;49.194;12.526;2023-04-25T03:59:34;7.90;99.90
18141;DHT22;9196;49.194;12.526;2023-04-25T04:02:01;7.80;99.90
18141;DHT22;9196;49.194;12.526;2023-04-25T04:04:28;7.70;99.90
18141;DHT22;9196;49.194;12.526;2023-04-25T04:06:55;7.70;99.90
18141;DHT22;9196;49.194;12.526;2023-04-25T04:09:22;7.70;99.90
18141;DHT22;9196;49.194;12.526;2023-04-25T04:11:49;7.80;99.90
18141;DHT22;9196;49.194;12.526;2023-04-25T04:14:17;7.80;99.90
18141;DHT22;9196;49.194;12.526;2023-04-25T04:16:44;7.80;99.90
18141;DHT22;9196;49.194;12.526;2023-04-25T04:19:10;7.80;99.90
18141;DHT22;9196;49.194;12.526;2023-04-25T04:21:37;7.70;99.90
18141;DHT22;9196;49.194;12.526;2023-04-25T04:24:04;7.80;99.90
18141;DHT22;9196;49.194;12.526;2023-04-25T04:26:32;7.80;99.90
18141;DHT22;9196;49.194;12.526;2023-04-25T04:28:59;7.80;99.90
18141;DHT22;9196;49.194;12.526;2023-04-25T04:31:28;7.90;99.90
18141;DHT22;9196;49.194;12.526;2023-04-25T04:33:55;7.90;99.90
18141;DHT22;9196;49.194;12.526;2023-04-25T04:36:22;7.90;99.90
18141;DHT22;9196;49.194;12.526;2023-04-25T04:38:50;7.90;99.90
18141;DHT22;9196;49.194;12.526;2023-04-25T04:41:16;7.90;99.90
18141;DHT22;9196;49.194;12.526;2023-04-25T04:43:45;8.00;99.90
18141;DHT22;9196;49.194;12.526;2023-04-25T04:46:11;8.00;99.90
18141;DHT22;9196;49.194;12.526;2023-04-25T04:48:40;8.00;99.90
18141;DHT22;9196;49.194;12.526;2023-04-25T04:51:06;8.10;99.90
18141;DHT22;9196;49.194;12.526;2023-04-25T04:53:33;8.10;99.90
18141;DHT22;9196;49.194;12.526;2023-04-25T04:56:00;8.00;99.90
18141;DHT22;9196;49.194;12.526;2023-04-25T04:58:27;8.10;99.90
18141;DHT22;9196;49.194;12.526;2023-04-25T05:00:55;8.00;99.90
18141;DHT22;9196;49.194;12.526;2023-04-25T05:03:22;8.20;99.90
18141;DHT22;9196;49.194;12.526;2023-04-25T05:05:50;8.20;99.90
18141;DHT22;9196;49.194;12.526;2023-04-25T05:08:17;8.20;99.90
18141;DHT22;9196;49.194;12.526;2023-04-25T05:10:44;8.30;99.90
18141;DHT22;9196;49.194;12.526;2023-04-25T05:13:10;8.50;99.90
18141;DHT22;9196;49.194;12.526;2023-04-25T05:15:37;8.50;99.90
18141;DHT22;9196;49.194;12.526;2023-04-25T05:18:04;8.60;99.90
18141;DHT22;9196;49.194;12.526;2023-04-25T05:20:31;8.60;99.90
18141;DHT22;9196;49.194;12.526;2023-04-25T05:22:59;8.60;99.90
18141;DHT22;9196;49.194;12.526;2023-04-25T05:25:26;8.60;99.90
18141;DHT22;9196;49.194;12.526;2023-04-25T05:27:53;8.70;99.90
18141;DHT22;9196;49.194;12.526;2023-04-25T05:30:20;8.70;99.90
18141;DHT22;9196;49.194;12.526;2023-04-25T05:32:47;8.70;99.90
18141;DHT22;9196;49.194;12.526;2023-04-25T05:35:13;8.70;99.90
18141;DHT22;9196;49.194;12.526;2023-04-25T05:37:40;8.80;99.90
18141;DHT22;9196;49.194;12.526;2023-04-25T05:40:10;8.90;99.90
18141;DHT22;9196;49.194;12.526;2023-04-25T05:42:37;8.90;99.90
18141;DHT22;9196;49.194;12.526;2023-04-25T05:45:04;9.00;99.90
18141;DHT22;9196;49.194;12.526;2023-04-25T05:47:31;9.00;99.90
18141;DHT22;9196;49.194;12.526;2023-04-25T05:49:58;9.00;99.90
18141;DHT22;9196;49.194;12.526;2023-04-25T05:52:25;9.10;99.90
18141;DHT22;9196;49.194;12.526;2023-04-25T05:54:54;9.20;99.90
18141;DHT22;9196;49.194;12.526;2023-04-25T05:57:24;9.30;99.90
18141;DHT22;9196;49.194;12.526;2023-04-25T05:59:51;9.50;99.90
18141;DHT22;9196;49.194;12.526;2023-04-25T06:02:18;9.40;99.90
18141;DHT22;9196;49.194;12.526;2023-04-25T06:04:45;9.30;99.90
18141;DHT22;9196;49.194;12.526;2023-04-25T06:07:12;9.30;99.90
18141;DHT22;9196;49.194;12.526;2023-04-25T06:09:39;9.20;99.90
18141;DHT22;9196;49.194;12.526;2023-04-25T06:12:06;9.10;99.90
18141;DHT22;9196;49.194;12.526;2023-04-25T06:14:34;9.10;99.90
18141;DHT22;9196;49.194;12.526;2023-04-25T06:17:02;9.20;99.90
18141;DHT22;9196;49.194;12.526;2023-04-25T06:19:32;9.20;99.90
18141;DHT22;9196;49.194;12.526;2023-04-25T06:21:59;9.30;99.90
18141;DHT22;9196;49.194;12.526;2023-04-25T06:24:26;9.50;99.90
18141;DHT22;9196;49.194;12.526;2023-04-25T06:26:52;9.60;99.90
18141;DHT22;9196;49.194;12.526;2023-04-25T06:29:19;9.70;99.90
18141;DHT22;9196;49.194;12.526;2023-04-25T06:31:47;9.80;99.90
18141;DHT22;9196;49.194;12.526;2023-04-25T06:34:14;9.90;99.90
18141;DHT22;9196;49.194;12.526;2023-04-25T06:36:41;9.80;99.90
18141;DHT22;9196;49.194;12.526;2023-04-25T06:39:09;9.70;99.90
18141;DHT22;9196;49.194;12.526;2023-04-25T06:41:36;9.80;99.90
18141;DHT22;9196;49.194;12.526;2023-04-25T06:44:03;10.00;99.90
18141;DHT22;9196;49.194;12.526;2023-04-25T06:46:30;10.00;99.90
18141;DHT22;9196;49.194;12.526;2023-04-25T06:48:58;9.90;99.90
18141;DHT22;9196;49.194;12.526;2023-04-25T06:51:25;10.00;99.90
18141;DHT22;9196;49.194;12.526;2023-04-25T06:53:54;9.90;99.90
18141;DHT22;9196;49.194;12.526;2023-04-25T06:56:21;10.10;99.90
18141;DHT22;9196;49.194;12.526;2023-04-25T06:58:48;10.20;99.90
18141;DHT22;9196;49.194;12.526;2023-04-25T07:01:15;10.10;99.90
18141;DHT22;9196;49.194;12.526;2023-04-25T07:03:42;10.10;99.90
18141;DHT22;9196;49.194;12.526;2023-04-25T07:06:10;10.00;99.90
18141;DHT22;9196;49.194;12.526;2023-04-25T07:08:37;10.10;99.90
18141;DHT22;9196;49.194;12.526;2023-04-25T07:11:04;10.10;99.90
18141;DHT22;9196;49.194;12.526;2023-04-25T07:13:31;10.10;99.90
18141;DHT22;9196;49.194;12.526;2023-04-25T07:15:57;10.20;99.90
18141;DHT22;9196;49.194;12.526;2023-04-25T07:18:24;10.40;99.90
18141;DHT22;9196;49.194;12.526;2023-04-25T07:20:52;10.40;99.90
18141;DHT22;9196;49.194;12.526;2023-04-25T07:23:20;10.40;99.90
18141;DHT22;9196;49.194;12.526;2023-04-25T07:25:47;10.70;99.90
18141;DHT22;9196;49.194;12.526;2023-04-25T07:28:13;10.70;99.90
18141;DHT22;9196;49.194;12.526;2023-04-25T07:30:40;10.70;99.90
18141;DHT22;9196;49.194;12.526;2023-04-25T07:33:07;10.50;99.90
18141;DHT22;9196;49.194;12.526;2023-04-25T07:35:34;10.40;99.90
18141;DHT22;9196;49.194;12.526;2023-04-25T07:38:01;10.20;99.90
18141;DHT22;9196;49.194;12.526;2023-04-25T07:40:29;10.10;99.90
18141;DHT22;9196;49.194;12.526;2023-04-25T07:42:56;10.10;99.90
18141;DHT22;9196;49.194;12.526;2023-04-25T07:45:23;10.30;99.90
18141;DHT22;9196;49.194;12.526;2023-04-25T07:47:50;10.30;99.90
18141;DHT22;9196;49.194;12.526;2023-04-25T07:50:17;10.40;99.90
18141;DHT22;9196;49.194;12.526;2023-04-25T07:52:43;10.30;99.90
18141;DHT22;9196;49.194;12.526;2023-04-25T07:55:10;10.40;99.90
18141;DHT22;9196;49.194;12.526;2023-04-25T07:57:38;10.50;99.90
18141;DHT22;9196;49.194;12.526;2023-04-25T08:00:07;10.70;99.90
18141;DHT22;9196;49.194;12.526;2023-04-25T08:02:37;10.70;99.90
18141;DHT22;9196;49.194;12.526;2023-04-25T08:05:04;10.60;99.90
18141;DHT22;9196;49.194;12.526;2023-04-25T08:07:33;10.70;99.90
18141;DHT22;9196;49.194;12.526;2023-04-25T08:10:00;10.60;99.90
18141;DHT22;9196;49.194;12.526;2023-04-25T08:12:26;10.50;99.90
18141;DHT22;9196;49.194;12.526;2023-04-25T08:14:55;10.40;99.90
18141;DHT22;9196;49.194;12.526;2023-04-25T08:17:21;10.30;99.90
18141;DHT22;9196;49.194;12.526;2023-04-25T08:19:49;10.10;99.90
18141;DHT22;9196;49.194;12.526;2023-04-25T08:22:16;10.00;99.90
18141;DHT22;9196;49.194;12.526;2023-04-25T08:24:42;10.00;99.90
18141;DHT22;9196;49.194;12.526;2023-04-25T08:27:09;10.10;99.90
18141;DHT22;9196;49.194;12.526;2023-04-25T08:29:36;10.20;99.90
18141;DHT22;9196;49.194;12.526;2023-04-25T08:32:04;10.10;99.90
18141;DHT22;9196;49.194;12.526;2023-04-25T08:34:31;10.10;99.90
18141;DHT22;9196;49.194;12.526;2023-04-25T08:36:58;10.00;99.90
18141;DHT22;9196;49.194;12.526;2023-04-25T08:39:25;10.00;99.90
18141;DHT22;9196;49.194;12.526;2023-04-25T08:41:52;10.00;99.90
18141;DHT22;9196;49.194;12.526;2023-04-25T08:44:21;10.20;99.90
18141;DHT22;9196;49.194;12.526;2023-04-25T08:46:49;10.40;99.90
18141;DHT22;9196;49.194;12.526;2023-04-25T08:49:18;10.60;99.90
18141;DHT22;9196;49.194;12.526;2023-04-25T08:51:46;10.90;99.90
18141;DHT22;9196;49.194;12.526;2023-04-25T08:54:14;11.00;99.90
18141;DHT22;9196;49.194;12.526;2023-04-25T08:56:44;11.50;99.90
18141;DHT22;9196;49.194;12.526;2023-04-25T08:59:12;11.80;99.90
18141;DHT22;9196;49.194;12.526;2023-04-25T09:01:39;11.80;99.90
18141;DHT22;9196;49.194;12.526;2023-04-25T09:04:06;11.70;99.70
18141;DHT22;9196;49.194;12.526;2023-04-25T09:06:35;11.60;99.90
18141;DHT22;9196;49.194;12.526;2023-04-25T09:09:05;11.40;99.90
18141;DHT22;9196;49.194;12.526;2023-04-25T09:11:34;11.50;99.90
18141;DHT22;9196;49.194;12.526;2023-04-25T09:14:11;11.60;99.90
18141;DHT22;9196;49.194;12.526;2023-04-25T09:17:00;11.40;99.90
18141;DHT22;9196;49.194;12.526;2023-04-25T09:19:29;11.40;99.90
18141;DHT22;9196;49.194;12.526;2023-04-25T09:21:59;11.60;99.90
18141;DHT22;9196;49.194;12.526;2023-04-25T09:24:34;11.80;99.90
18141;DHT22;9196;49.194;12.526;2023-04-25T09:27:03;11.80;99.90
18141;DHT22;9196;49.194;12.526;2023-04-25T09:29:31;11.60;99.90
18141;DHT22;9196;49.194;12.526;2023-04-25T09:32:16;11.40;99.90
18141;DHT22;9196;49.194;12.526;2023-04-25T09:34:44;11.40;99.90
18141;DHT22;9196;49.194;12.526;2023-04-25T09:37:17;11.40;99.90
18141;DHT22;9196;49.194;12.526;2023-04-25T09:39:45;11.40;99.90
18141;DHT22;9196;49.194;12.526;2023-04-25T09:42:12;11.40;99.90
18141;DHT22;9196;49.194;12.526;2023-04-25T09:44:42;11.50;99.90
18141;DHT22;9196;49.194;12.526;2023-04-25T09:47:10;11.60;99.90
18141;DHT22;9196;49.194;12.526;2023-04-25T09:49:39;11.80;99.90
18141;DHT22;9196;49.194;12.526;2023-04-25T09:52:08;11.90;99.90
18141;DHT22;9196;49.194;12.526;2023-04-25T09:54:36;11.90;99.90
18141;DHT22;9196;49.194;12.526;2023-04-25T09:57:10;12.10;99.90
18141;DHT22;9196;49.194;12.526;2023-04-25T09:59:39;12.30;99.90
18141;DHT22;9196;49.194;12.526;2023-04-25T10:02:08;12.50;99.90
18141;DHT22;9196;49.194;12.526;2023-04-25T10:04:37;12.70;99.90
18141;DHT22;9196;49.194;12.526;2023-04-25T10:07:06;12.80;99.90
18141;DHT22;9196;49.194;12.526;2023-04-25T10:09:33;12.90;99.90
18141;DHT22;9196;49.194;12.526;2023-04-25T10:12:04;12.90;99.90
18141;DHT22;9196;49.194;12.526;2023-04-25T10:14:31;13.00;99.90
18141;DHT22;9196;49.194;12.526;2023-04-25T10:16:59;13.20;99.40
18141;DHT22;9196;49.194;12.526;2023-04-25T10:19:27;13.00;99.60
18141;DHT22;9196;49.194;12.526;2023-04-25T10:22:02;12.80;99.10
18141;DHT22;9196;49.194;12.526;2023-04-25T10:24:30;12.80;98.90
18141;DHT22;9196;49.194;12.526;2023-04-25T10:26:57;12.70;99.00
18141;DHT22;9196;49.194;12.526;2023-04-25T10:29:27;12.60;99.10
18141;DHT22;9196;49.194;12.526;2023-04-25T10:31:54;12.50;99.90
18141;DHT22;9196;49.194;12.526;2023-04-25T10:34:24;12.60;99.90
18141;DHT22;9196;49.194;12.526;2023-04-25T10:36:53;12.70;99.50
18141;DHT22;9196;49.194;12.526;2023-04-25T10:39:24;12.60;99.20
18141;DHT22;9196;49.194;12.526;2023-04-25T10:41:55;12.60;99.30
18141;DHT22;9196;49.194;12.526;2023-04-25T10:44:22;12.60;98.40
18141;DHT22;9196;49.194;12.526;2023-04-25T10:46:51;12.70;99.30
18141;DHT22;9196;49.194;12.526;2023-04-25T10:49:32;12.60;98.70
18141;DHT22;9196;49.194;12.526;2023-04-25T10:52:16;12.70;99.60
18141;DHT22;9196;49.194;12.526;2023-04-25T10:54:46;13.00;99.90
18141;DHT22;9196;49.194;12.526;2023-04-25T10:57:30;13.20;98.50
18141;DHT22;9196;49.194;12.526;2023-04-25T11:00:08;13.30;97.30
18141;DHT22;9196;49.194;12.526;2023-04-25T11:02:44;13.40;98.60
18141;DHT22;9196;49.194;12.526;2023-04-25T11:05:19;13.40;98.50
18141;DHT22;9196;49.194;12.526;2023-04-25T11:07:50;13.50;97.80
18141;DHT22;9196;49.194;12.526;2023-04-25T11:10:17;13.40;96.60
18141;DHT22;9196;49.194;12.526;2023-04-25T11:12:45;13.30;95.70
18141;DHT22;9196;49.194;12.526;2023-04-25T11:15:12;13.40;96.30
18141;DHT22;9196;49.194;12.526;2023-04-25T11:17:39;13.60;94.90
18141;DHT22;9196;49.194;12.526;2023-04-25T11:20:08;13.50;95.20
18141;DHT22;9196;49.194;12.526;2023-04-25T11:22:37;13.50;95.20
18141;DHT22;9196;49.194;12.526;2023-04-25T11:25:05;13.90;97.00
18141;DHT22;9196;49.194;12.526;2023-04-25T11:27:32;13.90;94.20
18141;DHT22;9196;49.194;12.526;2023-04-25T11:30:10;13.70;94.20
18141;DHT22;9196;49.194;12.526;2023-04-25T11:32:36;13.50;95.00
18141;DHT22;9196;49.194;12.526;2023-04-25T11:35:04;13.40;95.60
18141;DHT22;9196;49.194;12.526;2023-04-25T11:37:35;13.00;95.50
18141;DHT22;9196;49.194;12.526;2023-04-25T11:40:03;13.30;96.70
18141;DHT22;9196;49.194;12.526;2023-04-25T11:42:30;13.40;94.00
18141;DHT22;9196;49.194;12.526;2023-04-25T11:44:57;13.30;94.50
18141;DHT22;9196;49.194;12.526;2023-04-25T11:47:28;13.50;94.20
18141;DHT22;9196;49.194;12.526;2023-04-25T11:49:55;13.60;94.20
18141;DHT22;9196;49.194;12.526;2023-04-25T11:52:22;13.60;92.80
18141;DHT22;9196;49.194;12.526;2023-04-25T11:54:50;13.60;93.60
18141;DHT22;9196;49.194;12.526;2023-04-25T11:57:19;13.60;92.90
18141;DHT22;9196;49.194;12.526;2023-04-25T11:59:46;13.30;92.40
18141;DHT22;9196;49.194;12.526;2023-04-25T12:02:24;13.30;92.40
18141;DHT22;9196;49.194;12.526;2023-04-25T12:04:51;13.40;93.30
18141;DHT22;9196;49.194;12.526;2023-04-25T12:07:18;13.60;92.10
18141;DHT22;9196;49.194;12.526;2023-04-25T12:09:52;13.60;91.30
18141;DHT22;9196;49.194;12.526;2023-04-25T12:12:19;14.00;90.40
18141;DHT22;9196;49.194;12.526;2023-04-25T12:14:47;14.40;91.20
18141;DHT22;9196;49.194;12.526;2023-04-25T12:17:14;14.90;90.20
18141;DHT22;9196;49.194;12.526;2023-04-25T12:19:41;15.00;90.10
18141;DHT22;9196;49.194;12.526;2023-04-25T12:22:20;15.20;82.80
18141;DHT22;9196;49.194;12.526;2023-04-25T12:24:47;14.90;81.50
18141;DHT22;9196;49.194;12.526;2023-04-25T12:27:17;14.60;83.80
18141;DHT22;9196;49.194;12.526;2023-04-25T12:29:51;14.50;85.90
18141;DHT22;9196;49.194;12.526;2023-04-25T12:32:19;14.30;83.70
18141;DHT22;9196;49.194;12.526;2023-04-25T12:34:45;14.10;86.90
18141;DHT22;9196;49.194;12.526;2023-04-25T12:37:13;13.90;90.00
18141;DHT22;9196;49.194;12.526;2023-04-25T12:39:40;13.80;89.80
18141;DHT22;9196;49.194;12.526;2023-04-25T12:42:07;13.70;91.00
18141;DHT22;9196;49.194;12.526;2023-04-25T12:44:38;13.80;92.00
18141;DHT22;9196;49.194;12.526;2023-04-25T12:47:05;13.70;91.00
18141;DHT22;9196;49.194;12.526;2023-04-25T12:49:32;13.70;92.30
18141;DHT22;9196;49.194;12.526;2023-04-25T12:51:59;13.60;91.80
18141;DHT22;9196;49.194;12.526;2023-04-25T12:54:25;13.60;91.00
18141;DHT22;9196;49.194;12.526;2023-04-25T12:56:52;13.60;90.90
18141;DHT22;9196;49.194;12.526;2023-04-25T12:59:20;13.60;91.10
18141;DHT22;9196;49.194;12.526;2023-04-25T13:01:48;13.70;91.00
18141;DHT22;9196;49.194;12.526;2023-04-25T13:04:15;13.70;91.20
18141;DHT22;9196;49.194;12.526;2023-04-25T13:06:43;14.20;92.00
18141;DHT22;9196;49.194;12.526;2023-04-25T13:09:10;14.70;92.00
18141;DHT22;9196;49.194;12.526;2023-04-25T13:11:37;14.70;91.70
18141;DHT22;9196;49.194;12.526;2023-04-25T13:14:04;14.40;90.00
18141;DHT22;9196;49.194;12.526;2023-04-25T13:16:32;14.20;88.50
18141;DHT22;9196;49.194;12.526;2023-04-25T13:19:08;13.80;86.80
18141;DHT22;9196;49.194;12.526;2023-04-25T13:21:36;13.50;86.30
18141;DHT22;9196;49.194;12.526;2023-04-25T13:24:04;13.30;87.10
18141;DHT22;9196;49.194;12.526;2023-04-25T13:26:31;13.20;89.20
18141;DHT22;9196;49.194;12.526;2023-04-25T13:28:58;13.30;90.40
18141;DHT22;9196;49.194;12.526;2023-04-25T13:31:25;13.30;89.30
18141;DHT22;9196;49.194;12.526;2023-04-25T13:33:52;13.30;87.30
18141;DHT22;9196;49.194;12.526;2023-04-25T13:36:20;13.20;87.80
18141;DHT22;9196;49.194;12.526;2023-04-25T13:38:48;13.00;88.10
18141;DHT22;9196;49.194;12.526;2023-04-25T13:41:15;13.00;88.90
18141;DHT22;9196;49.194;12.526;2023-04-25T13:43:44;12.90;87.90
18141;DHT22;9196;49.194;12.526;2023-04-25T13:46:12;13.00;88.50
18141;DHT22;9196;49.194;12.526;2023-04-25T13:48:40;13.00;86.40
18141;DHT22;9196;49.194;12.526;2023-04-25T13:51:13;13.00;85.80
18141;DHT22;9196;49.194;12.526;2023-04-25T13:53:41;13.00;85.80
18141;DHT22;9196;49.194;12.526;2023-04-25T13:56:08;13.10;86.10
18141;DHT22;9196;49.194;12.526;2023-04-25T13:58:36;13.10;86.30
18141;DHT22;9196;49.194;12.526;2023-04-25T14:01:03;13.00;87.90
18141;DHT22;9196;49.194;12.526;2023-04-25T14:03:30;13.50;91.30
18141;DHT22;9196;49.194;12.526;2023-04-25T14:05:57;13.80;88.20
18141;DHT22;9196;49.194;12.526;2023-04-25T14:08:24;13.80;87.50
18141;DHT22;9196;49.194;12.526;2023-04-25T14:10:52;13.70;88.00
18141;DHT22;9196;49.194;12.526;2023-04-25T14:13:19;13.90;89.40
18141;DHT22;9196;49.194;12.526;2023-04-25T14:15:46;14.00;86.10
18141;DHT22;9196;49.194;12.526;2023-04-25T14:18:12;13.90;83.20
18141;DHT22;9196;49.194;12.526;2023-04-25T14:20:39;13.60;83.40
18141;DHT22;9196;49.194;12.526;2023-04-25T14:23:06;13.40;84.30
18141;DHT22;9196;49.194;12.526;2023-04-25T14:25:33;13.40;85.30
18141;DHT22;9196;49.194;12.526;2023-04-25T14:28:02;13.70;87.60
18141;DHT22;9196;49.194;12.526;2023-04-25T14:30:29;13.90;87.80
18141;DHT22;9196;49.194;12.526;2023-04-25T14:32:56;13.90;87.60
18141;DHT22;9196;49.194;12.526;2023-04-25T14:35:22;13.90;86.60
18141;DHT22;9196;49.194;12.526;2023-04-25T14:37:49;14.00;86.10
18141;DHT22;9196;49.194;12.526;2023-04-25T14:40:16;14.00;85.70
18141;DHT22;9196;49.194;12.526;2023-04-25T14:42:43;14.10;85.70
18141;DHT22;9196;49.194;12.526;2023-04-25T14:45:12;14.30;80.30
18141;DHT22;9196;49.194;12.526;2023-04-25T14:47:38;14.70;80.90
18141;DHT22;9196;49.194;12.526;2023-04-25T14:50:07;14.70;78.30
18141;DHT22;9196;49.194;12.526;2023-04-25T14:52:34;14.60;79.20
18141;DHT22;9196;49.194;12.526;2023-04-25T14:55:00;14.30;77.40
18141;DHT22;9196;49.194;12.526;2023-04-25T14:57:30;14.10;77.20
18141;DHT22;9196;49.194;12.526;2023-04-25T14:59:57;14.40;77.50
18141;DHT22;9196;49.194;12.526;2023-04-25T15:02:25;14.70;78.10
18141;DHT22;9196;49.194;12.526;2023-04-25T15:04:52;14.70;73.80
18141;DHT22;9196;49.194;12.526;2023-04-25T15:07:19;14.40;72.40
18141;DHT22;9196;49.194;12.526;2023-04-25T15:09:47;14.10;71.50
18141;DHT22;9196;49.194;12.526;2023-04-25T15:12:14;13.90;72.20
18141;DHT22;9196;49.194;12.526;2023-04-25T15:14:41;13.80;75.00
18141;DHT22;9196;49.194;12.526;2023-04-25T15:17:07;13.80;75.80
18141;DHT22;9196;49.194;12.526;2023-04-25T15:19:36;13.70;75.50
18141;DHT22;9196;49.194;12.526;2023-04-25T15:22:02;13.70;75.50
18141;DHT22;9196;49.194;12.526;2023-04-25T15:24:31;13.70;74.20
18141;DHT22;9196;49.194;12.526;2023-04-25T15:26:58;13.80;72.80
18141;DHT22;9196;49.194;12.526;2023-04-25T15:29:24;13.90;73.40
18141;DHT22;9196;49.194;12.526;2023-04-25T15:31:52;14.20;75.30
18141;DHT22;9196;49.194;12.526;2023-04-25T15:34:19;14.40;73.70
18141;DHT22;9196;49.194;12.526;2023-04-25T15:36:47;14.60;74.50
18141;DHT22;9196;49.194;12.526;2023-04-25T15:39:14;14.70;69.30
18141;DHT22;9196;49.194;12.526;2023-04-25T15:41:41;14.70;69.60